createdAt,value
2018-07-23T00:00:18.595Z,38.42
2018-07-23T00:01:55.051Z,38.42
2018-07-23T00:03:33.340Z,38.52
2018-07-23T00:05:34.714Z,38.51
2018-07-23T00:15:00.357Z,38.78
2018-07-23T00:16:38.835Z,38.11
2018-07-23T00:18:15.499Z,38.14
2018-07-23T00:19:54.974Z,38.63
2018-07-23T00:21:32.019Z,38.14
2018-07-23T00:23:10.472Z,38.93
2018-07-23T00:24:47.116Z,38.87
2018-07-23T00:26:25.384Z,38.56
2018-07-23T00:28:02.717Z,39.06
2018-07-23T00:29:40.499Z,38.67
2018-07-23T00:31:18.623Z,38.52
2018-07-23T00:32:57.394Z,38.76
2018-07-23T00:34:35.060Z,38.83
2018-07-23T00:36:12.561Z,38.66
2018-07-23T00:37:49.822Z,39.26
2018-07-23T00:39:27.492Z,38.86
2018-07-23T00:41:04.744Z,38.87
2018-07-23T00:42:42.458Z,38.85
2018-07-23T00:44:19.587Z,38.70
2018-07-23T00:45:57.035Z,38.50
2018-07-23T00:47:42.762Z,39.45
2018-07-23T00:49:20.227Z,38.87
2018-07-23T00:50:56.760Z,39.17
2018-07-23T00:52:34.423Z,38.88
2018-07-23T00:54:35.118Z,38.88
2018-07-23T00:56:45.519Z,39.18
2018-07-23T00:58:24.234Z,38.88
2018-07-23T01:00:15.072Z,38.67
2018-07-23T01:01:54.660Z,38.71
2018-07-23T01:03:31.346Z,39.16
2018-07-23T01:05:11.445Z,39.28
2018-07-23T01:06:59.710Z,39.17
2018-07-23T01:08:37.691Z,38.64
2018-07-23T01:10:33.260Z,39.44
2018-07-23T01:12:33.741Z,39.44
2018-07-23T01:14:17.272Z,39.59
2018-07-23T01:15:57.852Z,39.71
2018-07-23T01:17:39.656Z,39.15
2018-07-23T01:19:27.906Z,39.60
2018-07-23T01:21:05.010Z,39.41
2018-07-23T01:22:55.225Z,39.25
2018-07-23T01:24:43.652Z,39.59
2018-07-23T01:26:34.259Z,39.09
2018-07-23T01:28:30.556Z,39.63
2018-07-23T01:30:18.726Z,39.68
2018-07-23T01:32:12.421Z,39.34
2018-07-23T01:33:55.934Z,39.88
2018-07-23T01:36:22.285Z,39.60
2018-07-23T01:37:59.694Z,39.45
2018-07-23T01:39:36.046Z,39.48
2018-07-23T01:41:12.771Z,40.01
2018-07-23T01:42:51.996Z,39.55
2018-07-23T01:44:28.400Z,40.05
2018-07-23T01:46:05.197Z,39.57
2018-07-23T01:47:41.637Z,39.75
2018-07-23T01:49:17.914Z,39.78
2018-07-23T01:51:18.540Z,40.14
2018-07-23T01:52:58.019Z,39.82
2018-07-23T01:54:36.364Z,40.00
2018-07-23T01:56:18.863Z,40.05
2018-07-23T01:57:59.270Z,39.72
2018-07-23T01:59:38.549Z,40.27
2018-07-23T02:01:16.438Z,39.83
2018-07-23T02:02:54.688Z,40.15
2018-07-23T02:04:41.212Z,40.06
2018-07-23T02:06:25.144Z,39.80
2018-07-23T02:08:05.137Z,40.31
2018-07-23T02:09:50.281Z,40.51
2018-07-23T02:13:22.210Z,39.81
2018-07-23T02:15:01.222Z,40.02
2018-07-23T02:16:45.130Z,40.29
2018-07-23T02:18:22.389Z,40.50
2018-07-23T02:20:05.142Z,39.71
2018-07-23T02:21:42.382Z,40.09
2018-07-23T02:23:19.951Z,40.04
2018-07-23T02:25:04.762Z,40.19
2018-07-23T02:26:42.487Z,40.28
2018-07-23T02:28:18.846Z,40.84
2018-07-23T02:29:55.384Z,40.62
2018-07-23T02:31:32.304Z,40.43
2018-07-23T02:33:13.687Z,40.24
2018-07-23T02:37:15.331Z,40.47
2018-07-23T02:39:26.858Z,40.68
2018-07-23T02:41:03.168Z,40.96
2018-07-23T02:43:03.988Z,41.15
2018-07-23T02:45:01.037Z,40.39
2018-07-23T02:46:55.273Z,40.35
2018-07-23T02:48:40.457Z,41.10
2018-07-23T02:50:24.159Z,41.06
2018-07-23T02:52:03.344Z,40.75
